createdAt,value
2023-07-19T00:02:01.593Z,95577.56
2023-07-19T00:07:07.576Z,95576.78
2023-07-19T00:12:10.505Z,95572.94
2023-07-19T00:17:14.271Z,95569.06
2023-07-19T00:22:19.943Z,95560.88
2023-07-19T00:27:35.826Z,95558.78
2023-07-19T00:32:39.731Z,95556.59
2023-07-19T00:37:49.635Z,95555.06
2023-07-19T00:42:59.552Z,95561.81
2023-07-19T00:48:06.308Z,95561.31
2023-07-19T00:53:08.202Z,95567.41
2023-07-19T00:58:10.044Z,95559.66
2023-07-19T01:03:19.146Z,95558.91
2023-07-19T01:08:21.181Z,95571.28
2023-07-19T01:13:28.228Z,95565.25
2023-07-19T01:18:35.020Z,95564.25
2023-07-19T01:23:48.578Z,95567.34
2023-07-19T01:28:50.097Z,95560.63
2023-07-19T01:33:55.877Z,95558.22
2023-07-19T01:39:02.151Z,95559.66
2023-07-19T01:44:07.452Z,95555.44
2023-07-19T01:49:09.026Z,95563.59
2023-07-19T01:54:17.729Z,95556.78
2023-07-19T01:59:25.488Z,95536.75
2023-07-19T02:04:30.877Z,95552.56
2023-07-19T02:09:35.900Z,95542.94
2023-07-19T02:14:41.604Z,95548.97
2023-07-19T02:19:45.543Z,95555.81
2023-07-19T02:24:49.462Z,95554.28
2023-07-19T02:30:01.337Z,95542.09
2023-07-19T02:35:08.416Z,95550.16
2023-07-19T02:40:13.459Z,95566.31
2023-07-19T02:45:16.190Z,95562.97
2023-07-19T02:50:20.724Z,95559.88
2023-07-19T02:55:22.334Z,95555.28
2023-07-19T03:00:24.027Z,95548.66
2023-07-19T03:05:26.905Z,95550.38
2023-07-19T03:10:31.220Z,95545.28
2023-07-19T03:15:36.054Z,95567.75
2023-07-19T03:20:38.879Z,95569.22
2023-07-19T03:25:40.521Z,95541.81
2023-07-19T03:30:42.112Z,95571.22
2023-07-19T03:35:53.119Z,95593.13
2023-07-19T03:40:54.734Z,95572.78
2023-07-19T03:45:57.041Z,95570.06
2023-07-19T03:51:05.076Z,95578.19
2023-07-19T03:56:10.853Z,95583.69
2023-07-19T04:01:17.676Z,95589.41
2023-07-19T04:06:32.224Z,95583.38
2023-07-19T04:11:34.688Z,95575.31
2023-07-19T04:16:36.950Z,95575.78
2023-07-19T04:21:44.769Z,95570.13
2023-07-19T04:26:46.405Z,95576.91
2023-07-19T04:31:50.217Z,95585.28
2023-07-19T04:36:52.335Z,95586.34
2023-07-19T04:41:54.015Z,95578.47
2023-07-19T04:46:58.234Z,95570.88
2023-07-19T04:52:00.301Z,95556.94
2023-07-19T04:57:04.354Z,95562.31
2023-07-19T05:02:08.921Z,95573.66
2023-07-19T05:07:16.032Z,95569.63
2023-07-19T05:12:20.062Z,95570.13
2023-07-19T05:17:25.333Z,95576.44
2023-07-19T05:22:31.263Z,95571.06
2023-07-19T05:27:35.259Z,95580.50
2023-07-19T05:32:36.878Z,95583.69
2023-07-19T05:37:42.317Z,95566.59
2023-07-19T05:42:52.970Z,95566.22
2023-07-19T05:48:01.904Z,95567.88
2023-07-19T05:53:09.055Z,95577.38
2023-07-19T05:58:10.635Z,95574.13
2023-07-19T06:03:19.998Z,95567.38
2023-07-19T06:08:25.179Z,95562.38
2023-07-19T06:13:27.365Z,95573.44
2023-07-19T06:18:31.429Z,95575.84
2023-07-19T06:23:33.081Z,95585.34
2023-07-19T06:28:36.338Z,95581.59
2023-07-19T06:33:42.429Z,95573.53
2023-07-19T06:38:49.149Z,95576.19
2023-07-19T06:43:50.696Z,95571.78
2023-07-19T06:48:52.277Z,95569.16
2023-07-19T06:54:08.771Z,95573.66
2023-07-19T06:59:18.228Z,95575.75
2023-07-19T07:04:22.568Z,95578.84
2023-07-19T07:09:28.308Z,95580.19
2023-07-19T07:14:29.814Z,95578.44
2023-07-19T07:19:33.964Z,95580.78
2023-07-19T07:24:37.431Z,95572.78
2023-07-19T07:29:42.861Z,95580.25
2023-07-19T07:34:52.988Z,95573.69
2023-07-19T07:39:56.039Z,95581.22
2023-07-19T07:44:57.559Z,95581.22
2023-07-19T07:50:01.503Z,95584.25
2023-07-19T07:55:08.361Z,95580.28
2023-07-19T08:00:14.567Z,95581.09
2023-07-19T08:05:21.612Z,95595.66
2023-07-19T08:10:27.835Z,95585.78
2023-07-19T08:15:29.494Z,95582.50
2023-07-19T08:20:34.876Z,95580.56
2023-07-19T08:25:39.506Z,95577.59
2023-07-19T08:30:41.545Z,95576.09
2023-07-19T08:35:45.821Z,95577.28
2023-07-19T08:41:19.764Z,95584.81
2023-07-19T08:46:24.378Z,95575.78
2023-07-19T08:51:27.206Z,95564.94
2023-07-19T08:56:33.336Z,95555.66
2023-07-19T09:01:40.332Z,95553.25
2023-07-19T09:06:46.603Z,95549.00
2023-07-19T09:11:52.552Z,95544.78
2023-07-19T09:16:54.247Z,95548.41
2023-07-19T09:22:01.208Z,95547.69
2023-07-19T09:27:02.795Z,95541.13
2023-07-19T09:32:04.661Z,95552.13
2023-07-19T09:37:08.865Z,95558.00
2023-07-19T09:42:14.594Z,95546.84
2023-07-19T09:47:28.140Z,95550.44
2023-07-19T09:52:41.473Z,95573.66
2023-07-19T09:57:49.422Z,95560.13
2023-07-19T10:02:51.253Z,95552.78
2023-07-19T10:07:52.872Z,95540.09
2023-07-19T10:12:58.307Z,95537.34
2023-07-19T10:18:04.041Z,95526.88
2023-07-19T10:23:07.555Z,95533.25
2023-07-19T10:28:13.816Z,95526.88
2023-07-19T10:33:21.850Z,95516.69
2023-07-19T10:38:35.413Z,95517.97
2023-07-19T10:48:50.351Z,95513.34
2023-07-19T10:53:58.682Z,95503.38
2023-07-19T10:59:01.965Z,95496.25
2023-07-19T11:04:08.479Z,95492.66
2023-07-19T11:09:13.173Z,95501.59
2023-07-19T11:14:29.839Z,95476.78
2023-07-19T11:19:33.555Z,95474.47
2023-07-19T11:24:39.736Z,95471.09
2023-07-19T11:29:44.359Z,95476.16
2023-07-19T11:34:51.806Z,95471.53
2023-07-19T11:39:55.594Z,95492.78
2023-07-19T11:45:02.321Z,95499.19
2023-07-19T11:50:07.821Z,95464.69
2023-07-19T11:55:12.321Z,95467.22
2023-07-19T12:00:21.506Z,95450.31
2023-07-19T12:05:25.259Z,95455.84
2023-07-19T12:10:27.808Z,95451.94
2023-07-19T12:15:31.966Z,95458.06
2023-07-19T12:20:36.177Z,95447.22
2023-07-19T12:25:37.784Z,95443.59
2023-07-19T12:30:41.937Z,95442.31
2023-07-19T12:35:50.280Z,95428.25
2023-07-19T12:40:54.238Z,95422.78
2023-07-19T12:46:00.834Z,95425.78
2023-07-19T12:51:04.135Z,95427.53
2023-07-19T12:56:06.111Z,95408.75
2023-07-19T13:01:07.803Z,95405.94
2023-07-19T13:06:14.088Z,95430.47
2023-07-19T13:11:20.892Z,95423.72
2023-07-19T13:16:22.815Z,95410.38
2023-07-19T13:21:25.349Z,95410.19
2023-07-19T13:26:29.428Z,95397.19
2023-07-19T13:31:41.321Z,95408.75
2023-07-19T13:41:52.501Z,95404.84
2023-07-19T13:47:01.895Z,95395.19
2023-07-19T13:52:06.322Z,95390.53
2023-07-19T13:57:15.886Z,95377.44
2023-07-19T14:07:31.316Z,95402.75
2023-07-19T14:12:37.941Z,95382.25
2023-07-19T14:17:40.672Z,95382.06
2023-07-19T14:22:54.127Z,95363.44
2023-07-19T14:27:56.664Z,95373.63
2023-07-19T14:32:58.337Z,95361.56
2023-07-19T14:38:03.934Z,95369.75
2023-07-19T14:43:08.244Z,95364.94
2023-07-19T14:48:15.337Z,95363.34
2023-07-19T14:53:20.438Z,95361.69
2023-07-19T14:58:26.413Z,95369.06
2023-07-19T15:03:32.479Z,95362.09
2023-07-19T15:08:36.518Z,95347.88
2023-07-19T15:13:40.836Z,95347.03
2023-07-19T15:18:48.569Z,95342.47
2023-07-19T15:23:52.493Z,95338.50
2023-07-19T15:29:05.090Z,95330.66
2023-07-19T15:34:09.162Z,95331.00
2023-07-19T15:39:18.513Z,95341.06
2023-07-19T15:44:36.110Z,95354.19
2023-07-19T15:49:38.628Z,95369.44
2023-07-19T15:54:43.329Z,95433.19
2023-07-19T15:59:44.991Z,95408.34
2023-07-19T16:04:46.630Z,95387.84
2023-07-19T16:09:48.158Z,95383.78
2023-07-19T16:14:52.245Z,95386.09
2023-07-19T16:20:14.481Z,95384.31
2023-07-19T16:25:18.350Z,95379.44
2023-07-19T16:30:19.931Z,95366.41
2023-07-19T16:35:23.972Z,95359.72
2023-07-19T16:40:25.571Z,95351.44
2023-07-19T16:45:31.955Z,95339.13
2023-07-19T16:50:34.616Z,95349.28
2023-07-19T16:55:38.641Z,95347.88
2023-07-19T17:00:44.011Z,95345.41
2023-07-19T17:05:50.456Z,95340.75
2023-07-19T17:10:56.038Z,95342.31
2023-07-19T17:15:57.591Z,95344.13
2023-07-19T17:21:01.512Z,95343.91
2023-07-19T17:26:05.890Z,95346.41
2023-07-19T17:31:09.793Z,95348.41
2023-07-19T17:36:13.673Z,95364.75
2023-07-19T17:41:19.038Z,95366.03
2023-07-19T17:46:21.028Z,95373.28
2023-07-19T17:51:22.861Z,95377.38
2023-07-19T17:56:24.747Z,95374.34
2023-07-19T18:01:26.484Z,95375.91
2023-07-19T18:06:30.831Z,95371.13
2023-07-19T18:11:32.676Z,95379.38
2023-07-19T18:16:38.235Z,95389.66
2023-07-19T18:21:47.683Z,95377.47
2023-07-19T18:26:55.768Z,95361.97
2023-07-19T18:32:06.876Z,95359.97
2023-07-19T18:37:08.960Z,95351.03
2023-07-19T18:42:10.609Z,95382.19
2023-07-19T18:47:12.903Z,95378.63
2023-07-19T18:52:17.559Z,95394.47
2023-07-19T18:57:23.528Z,95437.34
2023-07-19T19:02:28.175Z,95475.13
2023-07-19T19:07:32.534Z,95459.19
2023-07-19T19:12:39.049Z,95456.63
2023-07-19T19:17:52.261Z,95451.53
2023-07-19T19:22:59.372Z,95459.22
2023-07-19T19:28:03.856Z,95435.59
2023-07-19T19:33:06.934Z,95442.09
2023-07-19T19:38:11.136Z,95453.16
2023-07-19T19:43:12.991Z,95469.41
2023-07-19T19:48:15.333Z,95468.78
2023-07-19T19:53:21.340Z,95462.41
2023-07-19T19:58:25.081Z,95471.78
2023-07-19T20:08:34.162Z,95471.22
2023-07-19T20:13:36.106Z,95465.38
2023-07-19T20:23:45.763Z,95452.38
2023-07-19T20:28:50.060Z,95444.69
2023-07-19T20:39:00.344Z,95443.25
2023-07-19T20:44:02.029Z,95448.41
2023-07-19T20:49:13.181Z,95443.94
2023-07-19T20:54:26.703Z,95435.88
2023-07-19T20:59:36.141Z,95450.44
2023-07-19T21:04:38.613Z,95444.50
2023-07-19T21:09:43.005Z,95435.56
2023-07-19T21:14:45.300Z,95447.41
2023-07-19T21:19:48.778Z,95456.94
2023-07-19T21:25:13.406Z,95458.13
2023-07-19T21:30:14.807Z,95455.72
2023-07-19T21:35:19.752Z,95449.97
2023-07-19T21:40:21.768Z,95452.44
2023-07-19T21:45:29.443Z,95453.88
2023-07-19T21:50:31.208Z,95466.75
2023-07-19T21:55:32.789Z,95474.53
2023-07-19T22:00:45.140Z,95481.81
2023-07-19T22:05:46.805Z,95489.63
2023-07-19T22:10:48.417Z,95496.41
2023-07-19T22:15:56.759Z,95497.88
2023-07-19T22:21:15.614Z,95489.53
2023-07-19T22:26:22.261Z,95492.47
2023-07-19T22:31:25.139Z,95493.44
2023-07-19T22:36:27.433Z,95510.03
2023-07-19T22:41:31.349Z,95510.41
2023-07-19T22:46:35.112Z,95522.97
2023-07-19T22:51:37.580Z,95524.09
2023-07-19T22:56:46.807Z,95535.75
2023-07-19T23:01:54.234Z,95538.41
2023-07-19T23:06:58.323Z,95544.16
2023-07-19T23:12:02.474Z,95540.59
2023-07-19T23:17:04.366Z,95539.25
2023-07-19T23:22:12.181Z,95537.41
2023-07-19T23:27:14.120Z,95540.25
2023-07-19T23:32:22.124Z,95554.06
2023-07-19T23:37:24.840Z,95550.09
2023-07-19T23:42:28.692Z,95549.81
2023-07-19T23:47:38.549Z,95550.25
2023-07-19T23:52:41.337Z,95552.28
2023-07-19T23:57:48.575Z,95551.97
